createdAt,value
2019-05-22T00:01:31.858Z,99.90
2019-05-22T00:04:03.633Z,99.90
2019-05-22T00:06:32.609Z,99.90
2019-05-22T00:08:59.965Z,99.90
2019-05-22T00:11:27.698Z,99.90
2019-05-22T00:13:54.519Z,99.90
2019-05-22T00:16:21.410Z,99.90
2019-05-22T00:18:48.192Z,99.90
2019-05-22T00:21:14.940Z,99.90
2019-05-22T00:23:42.413Z,99.90
2019-05-22T00:26:09.145Z,99.90
2019-05-22T00:28:36.789Z,99.90
2019-05-22T00:31:03.526Z,99.90
2019-05-22T00:33:30.324Z,99.90
2019-05-22T00:35:57.220Z,99.90
2019-05-22T00:38:23.998Z,99.90
2019-05-22T00:40:50.848Z,99.90
2019-05-22T00:43:17.630Z,99.90
2019-05-22T00:45:44.430Z,99.90
2019-05-22T00:48:11.191Z,99.90
2019-05-22T00:50:37.977Z,99.90
2019-05-22T00:53:12.509Z,99.90
2019-05-22T00:55:41.883Z,99.90
2019-05-22T00:58:08.672Z,99.90
2019-05-22T01:00:38.445Z,99.90
2019-05-22T01:03:05.280Z,99.90
2019-05-22T01:05:32.062Z,99.90
2019-05-22T01:07:58.834Z,99.90
2019-05-22T01:10:25.706Z,99.90
2019-05-22T01:12:53.304Z,99.90
2019-05-22T01:15:20.059Z,99.90
2019-05-22T01:17:46.781Z,99.90
2019-05-22T01:20:15.336Z,99.90
2019-05-22T01:22:42.199Z,99.90
2019-05-22T01:25:09.769Z,99.90
2019-05-22T01:27:37.288Z,99.90
2019-05-22T01:30:04.087Z,99.90
2019-05-22T01:32:30.950Z,99.90
2019-05-22T01:34:57.652Z,99.90
2019-05-22T01:37:24.434Z,99.90
2019-05-22T01:39:51.359Z,99.90
2019-05-22T01:48:15.671Z,99.90
2019-05-22T01:50:42.629Z,99.90
2019-05-22T01:53:09.368Z,99.90
2019-05-22T01:55:36.977Z,99.90
2019-05-22T01:58:03.838Z,99.90
2019-05-22T02:00:30.851Z,99.90
2019-05-22T02:02:57.589Z,99.90
2019-05-22T02:05:24.286Z,99.90
2019-05-22T02:07:51.693Z,99.90
2019-05-22T02:10:20.434Z,99.90
2019-05-22T02:12:47.966Z,99.90
2019-05-22T02:15:14.760Z,99.90
2019-05-22T02:17:41.565Z,99.90
2019-05-22T02:20:09.063Z,99.90
2019-05-22T02:22:35.212Z,99.90
2019-05-22T02:25:02.146Z,99.90
2019-05-22T02:27:28.908Z,99.90
2019-05-22T02:29:55.640Z,99.90
2019-05-22T02:32:22.436Z,99.90
2019-05-22T02:34:49.958Z,99.90
2019-05-22T02:37:16.708Z,99.90
2019-05-22T02:39:43.716Z,99.90
2019-05-22T02:42:12.286Z,99.90
2019-05-22T02:44:39.109Z,99.90
2019-05-22T02:47:18.862Z,99.90
2019-05-22T02:49:35.109Z,99.90
2019-05-22T02:52:01.862Z,99.90
2019-05-22T02:54:29.382Z,99.90
2019-05-22T02:56:56.111Z,99.90
2019-05-22T02:59:22.917Z,99.90
2019-05-22T03:01:49.596Z,99.90
2019-05-22T03:04:16.411Z,99.90
2019-05-22T03:06:43.909Z,99.90
2019-05-22T03:09:12.734Z,99.90
2019-05-22T03:11:39.564Z,99.90
2019-05-22T03:14:06.380Z,99.90
2019-05-22T03:16:49.949Z,99.90
2019-05-22T03:19:16.730Z,99.90
2019-05-22T03:21:43.498Z,99.90
2019-05-22T03:24:10.324Z,99.90
2019-05-22T03:26:37.077Z,99.90
2019-05-22T03:29:03.921Z,99.90
2019-05-22T03:31:30.681Z,99.90
2019-05-22T03:33:57.433Z,99.90
2019-05-22T03:36:24.192Z,99.90
2019-05-22T03:38:50.938Z,99.90
2019-05-22T03:41:17.750Z,99.90
2019-05-22T03:43:44.596Z,99.90
2019-05-22T03:46:19.327Z,99.90
2019-05-22T03:48:46.146Z,99.90
2019-05-22T03:51:12.969Z,99.90
2019-05-22T03:53:39.818Z,99.90
2019-05-22T03:56:06.651Z,99.90
2019-05-22T03:58:33.389Z,99.90
2019-05-22T04:01:00.196Z,99.90
2019-05-22T04:03:27.693Z,99.90
2019-05-22T04:05:54.429Z,99.90
2019-05-22T04:08:21.233Z,99.90
2019-05-22T04:10:53.840Z,99.90
2019-05-22T04:13:21.331Z,99.90
2019-05-22T04:15:48.115Z,99.90
2019-05-22T04:18:14.917Z,99.90
2019-05-22T04:20:41.637Z,99.90
2019-05-22T04:23:08.466Z,99.90
2019-05-22T04:25:35.291Z,99.90
2019-05-22T04:28:02.811Z,99.90
2019-05-22T04:30:29.526Z,99.90
2019-05-22T04:32:56.371Z,99.90
2019-05-22T04:35:23.227Z,99.90
2019-05-22T04:37:49.949Z,99.90
2019-05-22T04:43:26.772Z,99.90
2019-05-22T04:45:53.585Z,99.90
2019-05-22T04:48:20.357Z,99.90
2019-05-22T04:50:47.213Z,99.90
2019-05-22T04:53:13.968Z,99.90
2019-05-22T04:55:40.732Z,99.90
2019-05-22T04:58:08.329Z,99.90
2019-05-22T05:00:35.130Z,99.90
2019-05-22T05:03:01.921Z,99.90
2019-05-22T05:05:29.622Z,99.90
2019-05-22T05:07:57.189Z,99.90
2019-05-22T05:10:24.009Z,99.90
2019-05-22T05:12:50.818Z,99.90
2019-05-22T05:15:17.560Z,99.90
2019-05-22T05:17:44.379Z,99.90
2019-05-22T05:20:22.093Z,99.90
2019-05-22T05:22:44.215Z,99.90
2019-05-22T05:25:11.000Z,99.90
2019-05-22T05:27:37.744Z,99.90
2019-05-22T05:30:04.480Z,99.90
2019-05-22T05:32:31.229Z,99.90
2019-05-22T05:34:58.031Z,99.90
2019-05-22T05:37:24.800Z,99.90
2019-05-22T05:43:00.734Z,99.90
2019-05-22T05:45:27.565Z,99.90
2019-05-22T05:47:54.370Z,99.90
2019-05-22T05:50:21.067Z,99.90
2019-05-22T05:52:47.968Z,99.90
2019-05-22T05:55:14.830Z,99.90
2019-05-22T06:00:38.644Z,99.90
2019-05-22T06:06:11.840Z,99.90
2019-05-22T06:08:38.576Z,99.90
2019-05-22T06:11:19.179Z,99.90
2019-05-22T06:13:45.975Z,92.40
2019-05-22T06:19:14.940Z,84.50
2019-05-22T06:21:44.545Z,80.60
2019-05-22T06:24:21.081Z,80.60
2019-05-22T06:26:50.405Z,78.90
2019-05-22T06:29:17.167Z,78.80
2019-05-22T06:32:05.775Z,79.00
2019-05-22T06:34:33.303Z,76.10
2019-05-22T06:37:00.044Z,76.10
2019-05-22T06:39:26.890Z,76.40
2019-05-22T06:41:53.575Z,79.70
2019-05-22T06:44:30.661Z,71.50
2019-05-22T06:46:57.922Z,71.40
2019-05-22T06:49:37.747Z,69.40
2019-05-22T06:52:06.878Z,67.50
2019-05-22T06:54:34.431Z,67.50
2019-05-22T06:57:01.594Z,71.50
2019-05-22T06:59:28.334Z,75.40
2019-05-22T07:02:01.445Z,75.00
2019-05-22T07:04:22.974Z,72.70
2019-05-22T07:06:50.257Z,70.90
2019-05-22T07:09:18.062Z,65.80
2019-05-22T07:11:45.538Z,65.80
2019-05-22T07:14:13.226Z,62.00
2019-05-22T07:16:40.897Z,62.10
2019-05-22T07:19:08.652Z,64.00
2019-05-22T07:21:36.129Z,69.10
2019-05-22T07:24:03.758Z,69.10
2019-05-22T07:26:30.659Z,69.10
2019-05-22T07:29:00.771Z,66.60
2019-05-22T07:31:25.070Z,66.70
2019-05-22T07:33:51.762Z,66.80
2019-05-22T07:36:18.547Z,66.50
2019-05-22T07:38:45.369Z,65.90
2019-05-22T07:41:12.143Z,63.20
2019-05-22T07:43:41.681Z,64.20
2019-05-22T07:46:06.137Z,64.30
2019-05-22T07:48:32.862Z,64.80
2019-05-22T07:50:59.732Z,69.50
2019-05-22T07:53:26.444Z,72.50
2019-05-22T07:55:53.232Z,74.90
2019-05-22T07:58:20.012Z,75.90
2019-05-22T08:00:47.587Z,77.50
2019-05-22T08:03:14.329Z,79.20
2019-05-22T08:05:41.163Z,80.90
2019-05-22T08:08:07.920Z,82.60
2019-05-22T08:10:34.725Z,81.10
2019-05-22T08:13:02.224Z,83.10
2019-05-22T08:15:29.006Z,83.10
2019-05-22T08:17:57.743Z,80.50
2019-05-22T08:20:24.884Z,79.70
2019-05-22T08:22:51.725Z,79.80
2019-05-22T08:25:18.514Z,80.00
2019-05-22T08:27:45.300Z,77.10
2019-05-22T08:30:12.227Z,75.90
2019-05-22T08:32:39.040Z,74.10
2019-05-22T08:35:07.642Z,78.40
2019-05-22T08:37:35.176Z,79.00
2019-05-22T08:40:03.024Z,78.40
2019-05-22T08:42:29.008Z,75.90
2019-05-22T08:44:56.537Z,76.60
2019-05-22T08:47:23.417Z,76.70
2019-05-22T08:49:50.987Z,74.50
2019-05-22T08:52:23.383Z,75.20
2019-05-22T08:54:45.281Z,75.20
2019-05-22T08:57:12.855Z,74.50
2019-05-22T08:59:39.605Z,74.50
2019-05-22T09:02:06.349Z,74.60
2019-05-22T09:04:33.094Z,75.50
2019-05-22T09:06:59.825Z,79.40
2019-05-22T09:09:26.673Z,78.20
2019-05-22T09:11:53.359Z,79.10
2019-05-22T09:14:20.814Z,82.80
2019-05-22T09:16:47.527Z,82.50
2019-05-22T09:19:14.347Z,81.00
2019-05-22T09:21:41.256Z,80.20
2019-05-22T09:24:08.049Z,79.00
2019-05-22T09:26:34.745Z,76.40
2019-05-22T09:29:02.271Z,80.00
2019-05-22T09:31:28.993Z,79.90
2019-05-22T09:33:55.687Z,81.50
2019-05-22T09:36:22.451Z,81.50
2019-05-22T09:38:52.223Z,80.90
2019-05-22T09:41:16.034Z,82.30
2019-05-22T09:43:42.797Z,83.10
2019-05-22T09:46:09.594Z,82.00
2019-05-22T09:48:37.109Z,86.60
2019-05-22T09:51:03.866Z,86.50
2019-05-22T09:53:30.771Z,86.30
2019-05-22T09:55:57.474Z,86.00
2019-05-22T09:58:24.231Z,86.50
2019-05-22T10:00:51.155Z,86.90
2019-05-22T10:03:17.841Z,89.60
2019-05-22T10:05:44.652Z,88.70
2019-05-22T10:08:12.189Z,86.50
2019-05-22T10:10:39.718Z,88.40
2019-05-22T10:13:06.463Z,88.40
2019-05-22T10:15:33.241Z,84.90
2019-05-22T10:18:00.759Z,84.70
2019-05-22T10:20:27.571Z,83.90
2019-05-22T10:22:54.250Z,86.20
2019-05-22T10:25:21.068Z,83.70
2019-05-22T10:27:47.828Z,83.70
2019-05-22T10:30:15.563Z,83.90
2019-05-22T10:32:42.332Z,84.80
2019-05-22T10:35:09.861Z,84.90
2019-05-22T10:37:36.557Z,84.90
2019-05-22T10:40:04.118Z,82.40
2019-05-22T10:42:30.876Z,82.40
2019-05-22T10:44:57.617Z,83.30
2019-05-22T10:47:25.457Z,82.40
2019-05-22T10:49:53.818Z,83.90
2019-05-22T10:52:21.566Z,87.20
2019-05-22T10:54:49.055Z,87.10
2019-05-22T10:57:16.045Z,83.30
2019-05-22T10:59:42.815Z,81.90
2019-05-22T11:02:09.613Z,78.80
2019-05-22T11:04:37.179Z,80.30
2019-05-22T11:07:03.946Z,80.30
2019-05-22T11:09:30.720Z,78.40
2019-05-22T11:11:57.400Z,78.40
2019-05-22T11:14:24.132Z,79.50
2019-05-22T11:16:51.666Z,79.20
2019-05-22T11:19:18.372Z,79.10
2019-05-22T11:21:45.223Z,78.80
2019-05-22T11:24:11.991Z,78.80
2019-05-22T11:26:38.795Z,78.80
2019-05-22T11:29:05.520Z,79.10
2019-05-22T11:31:32.306Z,79.70
2019-05-22T11:33:59.097Z,81.50
2019-05-22T11:36:25.874Z,82.00
2019-05-22T11:38:52.645Z,82.00
2019-05-22T11:41:20.177Z,83.80
2019-05-22T11:43:46.987Z,83.80
2019-05-22T11:46:13.848Z,82.90
2019-05-22T11:48:40.564Z,81.80
2019-05-22T11:51:07.375Z,83.50
2019-05-22T11:53:34.853Z,84.50
2019-05-22T11:56:01.663Z,83.80
2019-05-22T11:58:28.409Z,86.90
2019-05-22T12:00:55.235Z,86.30
2019-05-22T12:03:22.023Z,86.10
2019-05-22T12:05:48.791Z,85.20
2019-05-22T12:08:15.538Z,85.70
2019-05-22T12:10:42.335Z,86.00
2019-05-22T12:13:09.861Z,86.00
2019-05-22T12:15:36.630Z,86.00
2019-05-22T12:18:04.265Z,86.80
2019-05-22T12:20:31.082Z,86.70
2019-05-22T12:22:57.795Z,86.00
2019-05-22T12:25:24.610Z,85.10
2019-05-22T12:27:51.302Z,86.20
2019-05-22T12:30:18.043Z,85.50
2019-05-22T12:32:44.925Z,86.90
2019-05-22T12:35:12.409Z,87.70
2019-05-22T12:37:39.221Z,87.70
2019-05-22T12:40:06.001Z,88.20
2019-05-22T12:42:32.861Z,89.30
2019-05-22T12:44:59.585Z,89.00
2019-05-22T12:47:27.087Z,90.60
2019-05-22T12:49:53.828Z,90.60
2019-05-22T12:52:20.546Z,90.60
2019-05-22T12:54:52.101Z,90.90
2019-05-22T12:57:14.177Z,90.60
2019-05-22T12:59:41.024Z,91.10
2019-05-22T13:02:07.806Z,91.80
2019-05-22T13:04:34.539Z,92.30
2019-05-22T13:07:01.293Z,91.70
2019-05-22T13:09:28.083Z,92.30
2019-05-22T13:11:54.896Z,92.70
2019-05-22T13:14:22.441Z,93.70
2019-05-22T13:16:49.425Z,93.30
2019-05-22T13:19:16.063Z,92.70
2019-05-22T13:21:42.879Z,92.80
2019-05-22T13:24:12.628Z,92.40
2019-05-22T13:26:39.396Z,93.40
2019-05-22T13:29:07.084Z,92.80
2019-05-22T13:31:33.843Z,92.80
2019-05-22T13:34:00.902Z,92.70
2019-05-22T13:36:28.927Z,93.30
2019-05-22T13:38:56.157Z,93.20
2019-05-22T13:41:23.286Z,93.20
2019-05-22T13:43:50.871Z,92.30
2019-05-22T13:46:17.606Z,92.20
2019-05-22T13:48:45.145Z,92.50
2019-05-22T13:51:11.880Z,92.50
2019-05-22T13:53:38.700Z,93.10
2019-05-22T13:56:05.537Z,93.30
2019-05-22T13:58:32.340Z,92.80
2019-05-22T14:00:59.816Z,92.70
2019-05-22T14:03:26.621Z,92.70
2019-05-22T14:05:54.308Z,93.20
2019-05-22T14:08:21.849Z,93.20
2019-05-22T14:10:50.245Z,93.20
2019-05-22T14:13:16.749Z,93.20
2019-05-22T14:15:52.369Z,93.60
2019-05-22T14:18:11.232Z,93.50
2019-05-22T14:20:38.134Z,92.60
2019-05-22T14:23:04.961Z,92.30
2019-05-22T14:25:31.703Z,92.30
2019-05-22T14:27:58.445Z,92.20
2019-05-22T14:30:26.021Z,92.50
2019-05-22T14:32:53.494Z,92.40
2019-05-22T14:35:20.280Z,92.40
2019-05-22T14:37:47.061Z,92.40
2019-05-22T14:40:14.600Z,92.60
2019-05-22T14:42:42.932Z,92.10
2019-05-22T14:45:09.698Z,92.10
2019-05-22T14:47:36.402Z,91.90
2019-05-22T14:50:04.121Z,92.40
2019-05-22T14:52:30.889Z,92.00
2019-05-22T14:54:57.597Z,90.80
2019-05-22T14:57:25.162Z,90.90
2019-05-22T14:59:52.666Z,90.60
2019-05-22T15:02:19.470Z,90.50
2019-05-22T15:04:46.248Z,90.40
2019-05-22T15:07:12.960Z,90.40
2019-05-22T15:09:39.768Z,90.60
2019-05-22T15:12:06.565Z,90.60
2019-05-22T15:14:33.254Z,90.50
2019-05-22T15:16:59.956Z,90.20
2019-05-22T15:19:26.720Z,90.60
2019-05-22T15:21:53.498Z,90.00
2019-05-22T15:24:20.232Z,90.20
2019-05-22T15:26:47.016Z,90.60
2019-05-22T15:29:13.719Z,90.30
2019-05-22T15:31:41.248Z,90.70
2019-05-22T15:34:08.026Z,90.70
2019-05-22T15:36:35.534Z,91.30
2019-05-22T15:39:02.470Z,91.30
2019-05-22T15:41:29.919Z,90.90
2019-05-22T15:43:56.732Z,90.90
2019-05-22T15:46:23.487Z,90.90
2019-05-22T15:48:50.273Z,91.40
2019-05-22T15:51:17.030Z,91.70
2019-05-22T15:53:43.776Z,91.90
2019-05-22T15:56:10.568Z,91.90
2019-05-22T15:58:37.416Z,91.90
2019-05-22T16:01:04.238Z,92.30
2019-05-22T16:03:31.014Z,91.70
2019-05-22T16:05:57.730Z,91.50
2019-05-22T16:08:24.559Z,91.90
2019-05-22T16:10:51.869Z,91.90
2019-05-22T16:13:18.270Z,92.10
2019-05-22T16:15:45.064Z,92.20
2019-05-22T16:18:12.610Z,92.30
2019-05-22T16:20:40.162Z,92.50
2019-05-22T16:23:07.009Z,92.50
2019-05-22T16:25:33.800Z,92.40
2019-05-22T16:28:00.588Z,92.90
2019-05-22T16:30:28.204Z,93.10
2019-05-22T16:32:54.983Z,94.20
2019-05-22T16:35:21.710Z,94.30
2019-05-22T16:37:48.415Z,94.20
2019-05-22T16:40:16.062Z,95.00
2019-05-22T16:42:43.596Z,95.20
2019-05-22T16:45:10.426Z,95.20
2019-05-22T16:47:37.246Z,95.40
2019-05-22T16:50:04.958Z,94.90
2019-05-22T16:52:31.791Z,94.20
2019-05-22T16:54:58.547Z,94.20
2019-05-22T16:57:26.387Z,94.30
2019-05-22T16:59:54.465Z,94.60
2019-05-22T17:02:21.390Z,94.60
2019-05-22T17:04:48.214Z,94.50
2019-05-22T17:07:14.991Z,94.40
2019-05-22T17:09:41.773Z,94.80
2019-05-22T17:12:08.628Z,95.30
2019-05-22T17:14:35.389Z,95.20
2019-05-22T17:17:02.153Z,95.30
2019-05-22T17:19:29.504Z,95.10
2019-05-22T17:21:56.845Z,95.60
2019-05-22T17:24:23.611Z,96.20
2019-05-22T17:26:50.480Z,97.00
2019-05-22T17:29:18.038Z,97.30
2019-05-22T17:31:44.890Z,97.40
2019-05-22T17:34:17.906Z,97.40
2019-05-22T17:36:45.433Z,98.50
2019-05-22T17:39:12.916Z,98.30
2019-05-22T17:41:40.021Z,98.30
2019-05-22T17:44:07.631Z,99.00
2019-05-22T17:46:34.402Z,99.00
2019-05-22T17:49:01.199Z,98.90
2019-05-22T17:51:28.037Z,98.80
2019-05-22T17:53:54.808Z,99.10
2019-05-22T17:56:21.575Z,99.50
2019-05-22T17:58:48.423Z,99.60
2019-05-22T18:01:15.176Z,99.70
2019-05-22T18:03:42.025Z,99.90
2019-05-22T18:06:09.021Z,99.90
2019-05-22T18:08:36.022Z,99.90
2019-05-22T18:11:03.953Z,99.90
2019-05-22T18:13:31.449Z,99.90
2019-05-22T18:15:59.070Z,99.90
2019-05-22T18:18:25.771Z,99.90
2019-05-22T18:20:52.583Z,99.90
2019-05-22T18:23:20.095Z,99.90
2019-05-22T18:25:46.895Z,99.90
2019-05-22T18:28:14.446Z,99.90
2019-05-22T18:30:42.155Z,99.90
2019-05-22T18:33:08.950Z,99.90
2019-05-22T18:35:35.741Z,99.90
2019-05-22T18:38:04.787Z,99.90
2019-05-22T18:40:29.305Z,99.90
2019-05-22T18:42:56.088Z,99.90
2019-05-22T18:45:22.900Z,99.90
2019-05-22T18:47:49.750Z,99.90
2019-05-22T18:50:16.471Z,99.90
2019-05-22T18:52:43.210Z,99.90
2019-05-22T18:55:10.703Z,99.90
2019-05-22T18:57:37.514Z,99.90
2019-05-22T19:00:06.092Z,99.90
2019-05-22T19:02:32.076Z,99.90
2019-05-22T19:04:59.577Z,99.90
2019-05-22T19:07:27.320Z,99.90
2019-05-22T19:09:54.552Z,99.90
2019-05-22T19:12:22.394Z,99.90
2019-05-22T19:14:49.181Z,99.90
2019-05-22T19:17:15.928Z,99.90
2019-05-22T19:19:42.736Z,99.90
2019-05-22T19:22:09.465Z,99.90
2019-05-22T19:24:36.200Z,99.90
2019-05-22T19:27:03.139Z,99.90
2019-05-22T19:29:30.132Z,99.90
2019-05-22T19:31:57.078Z,99.90
2019-05-22T19:34:23.880Z,99.90
2019-05-22T19:36:50.650Z,99.90
2019-05-22T19:39:17.413Z,99.90
2019-05-22T19:41:59.892Z,99.90
2019-05-22T19:44:15.255Z,99.90
2019-05-22T19:46:42.872Z,99.90
2019-05-22T19:49:09.668Z,99.90
2019-05-22T19:51:36.477Z,99.90
2019-05-22T19:54:03.270Z,99.90
2019-05-22T19:56:29.985Z,99.90
2019-05-22T19:58:56.908Z,99.90
2019-05-22T20:01:24.465Z,99.90
2019-05-22T20:03:51.318Z,99.90
2019-05-22T20:06:18.201Z,99.90
2019-05-22T20:08:45.649Z,99.90
2019-05-22T20:11:12.594Z,99.90
2019-05-22T20:13:39.384Z,99.90
2019-05-22T20:16:06.149Z,99.90
2019-05-22T20:18:33.167Z,99.90
2019-05-22T20:21:00.892Z,99.90
2019-05-22T20:23:36.135Z,99.90
2019-05-22T20:25:54.773Z,99.90
2019-05-22T20:28:21.858Z,99.90
2019-05-22T20:30:48.767Z,99.90
2019-05-22T20:33:17.030Z,99.90
2019-05-22T20:35:43.991Z,99.90
2019-05-22T20:38:11.518Z,99.90
2019-05-22T20:40:38.298Z,99.90
2019-05-22T20:43:05.101Z,99.90
2019-05-22T20:45:32.731Z,99.90
2019-05-22T20:48:03.427Z,99.90
2019-05-22T20:50:30.135Z,99.90
2019-05-22T20:52:56.894Z,99.90
2019-05-22T20:55:23.634Z,99.90
2019-05-22T20:57:50.370Z,99.90
2019-05-22T21:00:17.156Z,99.90
2019-05-22T21:02:43.906Z,99.90
2019-05-22T21:05:11.032Z,99.90
2019-05-22T21:07:38.678Z,99.90
2019-05-22T21:10:05.466Z,99.90
2019-05-22T21:12:35.714Z,99.90
2019-05-22T21:14:59.112Z,99.90
2019-05-22T21:17:26.710Z,99.90
2019-05-22T21:19:54.205Z,99.90
2019-05-22T21:22:20.951Z,99.90
2019-05-22T21:24:47.766Z,99.90
2019-05-22T21:27:14.746Z,99.90
2019-05-22T21:29:41.614Z,99.90
2019-05-22T21:32:09.173Z,99.90
2019-05-22T21:34:36.690Z,99.90
2019-05-22T21:37:03.472Z,99.90
2019-05-22T21:39:31.049Z,99.90
2019-05-22T21:41:58.482Z,99.90
2019-05-22T21:44:25.153Z,99.90
2019-05-22T21:46:52.028Z,99.90
2019-05-22T21:49:18.817Z,99.90
2019-05-22T21:51:45.551Z,99.90
2019-05-22T21:54:12.327Z,99.90
2019-05-22T21:56:39.843Z,99.90
2019-05-22T21:59:06.845Z,99.90
2019-05-22T22:01:34.629Z,99.90
2019-05-22T22:04:03.306Z,99.90
2019-05-22T22:06:33.153Z,99.90
2019-05-22T22:08:57.199Z,99.90
2019-05-22T22:11:24.351Z,99.90
2019-05-22T22:13:51.118Z,99.90
2019-05-22T22:16:17.952Z,99.90
2019-05-22T22:18:44.671Z,99.90
2019-05-22T22:21:11.403Z,99.90
2019-05-22T22:23:38.175Z,99.90
2019-05-22T22:26:23.236Z,99.90
2019-05-22T22:28:32.562Z,99.90
2019-05-22T22:31:00.240Z,99.90
2019-05-22T22:33:27.119Z,99.90
2019-05-22T22:35:53.921Z,99.90
2019-05-22T22:38:20.695Z,99.90
2019-05-22T22:40:47.516Z,99.90
2019-05-22T22:43:14.297Z,99.90
2019-05-22T22:45:50.853Z,99.90
2019-05-22T22:48:18.626Z,99.90
2019-05-22T22:50:46.116Z,99.90
2019-05-22T22:53:12.859Z,99.90
2019-05-22T22:55:39.879Z,99.90
2019-05-22T22:58:16.518Z,99.90
2019-05-22T23:00:35.241Z,99.90
2019-05-22T23:03:01.963Z,99.90
2019-05-22T23:05:28.756Z,99.90
2019-05-22T23:07:55.496Z,99.90
2019-05-22T23:10:22.293Z,99.90
2019-05-22T23:12:49.061Z,99.90
2019-05-22T23:15:18.260Z,99.90
2019-05-22T23:17:42.765Z,99.90
2019-05-22T23:20:09.170Z,99.90
2019-05-22T23:22:35.648Z,99.90
2019-05-22T23:25:02.426Z,99.90
2019-05-22T23:27:29.220Z,99.90
2019-05-22T23:29:56.029Z,99.90
2019-05-22T23:32:22.804Z,99.90
2019-05-22T23:34:49.574Z,99.90
2019-05-22T23:37:16.335Z,99.90
2019-05-22T23:39:43.090Z,99.90
2019-05-22T23:42:09.855Z,99.90
2019-05-22T23:44:36.619Z,99.90
2019-05-22T23:47:03.427Z,99.90
2019-05-22T23:49:30.361Z,99.90
2019-05-22T23:51:57.093Z,99.90
2019-05-22T23:54:23.783Z,99.90
2019-05-22T23:56:50.539Z,99.90
2019-05-22T23:59:17.321Z,99.90
